createdAt,value
2019-03-20T00:00:00.383Z,70.20
2019-03-20T00:05:07.066Z,70.53
2019-03-20T00:10:12.535Z,70.65
2019-03-20T00:15:17.858Z,70.61
2019-03-20T00:20:22.959Z,70.70
2019-03-20T00:25:28.085Z,70.90
2019-03-20T00:30:33.504Z,70.99
2019-03-20T00:35:38.579Z,70.94
2019-03-20T00:40:43.720Z,71.07
2019-03-20T00:45:48.907Z,71.20
2019-03-20T00:50:54.032Z,71.19
2019-03-20T00:55:59.209Z,71.40
2019-03-20T01:01:04.432Z,71.33
2019-03-20T01:06:09.469Z,71.46
2019-03-20T01:11:14.558Z,71.55
2019-03-20T01:16:19.714Z,71.46
2019-03-20T01:21:25.613Z,71.42
2019-03-20T01:26:30.740Z,71.71
2019-03-20T01:31:35.867Z,72.06
2019-03-20T01:36:41.111Z,72.29
2019-03-20T01:41:46.293Z,72.39
2019-03-20T01:46:51.357Z,72.37
2019-03-20T01:51:56.503Z,72.46
2019-03-20T01:57:01.537Z,72.44
2019-03-20T02:02:06.689Z,72.67
2019-03-20T02:07:11.857Z,72.83
2019-03-20T02:12:16.940Z,72.87
2019-03-20T02:17:21.988Z,73.13
2019-03-20T02:22:27.380Z,73.22
2019-03-20T02:27:32.477Z,73.27
2019-03-20T02:32:37.811Z,73.40
2019-03-20T02:37:43.039Z,73.33
2019-03-20T02:42:48.080Z,73.51
2019-03-20T02:47:53.239Z,73.63
2019-03-20T02:52:59.386Z,73.73
2019-03-20T02:58:04.668Z,73.74
2019-03-20T03:03:09.870Z,73.71
2019-03-20T03:08:14.969Z,73.83
2019-03-20T03:13:20.037Z,73.94
2019-03-20T03:18:25.092Z,74.11
2019-03-20T03:23:30.271Z,74.07
2019-03-20T03:28:35.373Z,73.89
2019-03-20T03:33:40.835Z,73.83
2019-03-20T03:38:45.948Z,73.68
2019-03-20T03:43:51.179Z,73.50
2019-03-20T03:48:56.256Z,73.42
2019-03-20T03:54:01.411Z,73.42
2019-03-20T03:59:06.523Z,73.22
2019-03-20T04:04:11.574Z,73.12
2019-03-20T04:09:16.729Z,73.15
2019-03-20T04:14:21.763Z,73.08
2019-03-20T04:19:26.826Z,73.02
2019-03-20T04:24:31.903Z,73.04
2019-03-20T04:29:37.025Z,73.07
2019-03-20T04:34:42.319Z,73.16
2019-03-20T04:39:47.365Z,73.08
2019-03-20T04:44:52.615Z,72.86
2019-03-20T04:49:57.733Z,72.64
2019-03-20T04:55:02.897Z,72.56
2019-03-20T05:00:19.036Z,72.56
2019-03-20T05:05:24.086Z,72.57
2019-03-20T05:10:29.350Z,72.41
2019-03-20T05:15:34.442Z,72.47
2019-03-20T05:20:39.582Z,72.30
2019-03-20T05:25:44.692Z,72.05
2019-03-20T05:30:49.808Z,71.77
2019-03-20T05:35:56.783Z,71.60
2019-03-20T05:41:01.822Z,71.33
2019-03-20T05:46:06.961Z,71.27
2019-03-20T05:51:12.184Z,71.02
2019-03-20T05:56:17.299Z,70.86
2019-03-20T06:01:22.475Z,70.65
2019-03-20T06:06:27.673Z,70.19
2019-03-20T06:11:32.853Z,69.81
2019-03-20T06:16:38.915Z,69.63
2019-03-20T06:21:44.084Z,69.25
2019-03-20T06:26:49.155Z,68.56
2019-03-20T06:31:54.287Z,67.85
2019-03-20T06:36:59.763Z,66.70
2019-03-20T06:42:05.295Z,66.43
2019-03-20T06:47:10.419Z,66.23
2019-03-20T06:52:15.507Z,65.50
2019-03-20T06:57:20.610Z,65.00
2019-03-20T07:02:25.488Z,64.67
2019-03-20T07:07:43.466Z,63.88
2019-03-20T07:12:40.366Z,63.16
2019-03-20T07:17:45.448Z,62.06
2019-03-20T07:22:50.560Z,61.42
2019-03-20T07:27:55.624Z,60.87
2019-03-20T07:33:00.740Z,59.67
2019-03-20T07:38:06.112Z,59.36
2019-03-20T07:43:11.154Z,58.50
2019-03-20T07:48:21.984Z,58.25
2019-03-20T07:53:23.183Z,56.84
2019-03-20T07:58:28.321Z,54.57
2019-03-20T08:03:33.646Z,54.47
2019-03-20T08:08:38.696Z,51.95
2019-03-20T08:13:43.895Z,53.08
2019-03-20T08:18:48.949Z,53.04
2019-03-20T08:23:54.176Z,52.71
2019-03-20T08:28:59.195Z,51.78
2019-03-20T08:34:04.931Z,51.69
2019-03-20T08:39:10.020Z,51.60
2019-03-20T08:44:15.190Z,49.58
2019-03-20T08:49:20.288Z,51.03
2019-03-20T08:54:25.451Z,49.62
2019-03-20T08:59:30.579Z,46.95
2019-03-20T09:04:35.915Z,46.80
2019-03-20T09:09:40.989Z,45.03
2019-03-20T09:14:46.080Z,44.63
2019-03-20T09:19:51.174Z,44.15
2019-03-20T09:24:56.213Z,44.10
2019-03-20T09:30:01.735Z,43.78
2019-03-20T09:35:07.417Z,43.99
2019-03-20T09:40:19.772Z,44.63
2019-03-20T09:45:25.567Z,44.20
2019-03-20T09:50:31.164Z,43.31
2019-03-20T09:55:36.338Z,42.10
2019-03-20T10:00:41.539Z,42.90
2019-03-20T10:05:46.699Z,42.45
2019-03-20T10:10:51.862Z,42.03
2019-03-20T10:15:57.116Z,40.71
2019-03-20T10:21:02.307Z,41.59
2019-03-20T10:26:07.772Z,40.34
2019-03-20T10:31:12.914Z,39.75
2019-03-20T10:36:17.990Z,39.36
2019-03-20T10:41:24.344Z,38.78
2019-03-20T10:46:29.610Z,38.59
2019-03-20T10:51:34.818Z,38.70
2019-03-20T10:56:40.336Z,38.42
2019-03-20T11:01:45.751Z,38.67
2019-03-20T11:06:50.969Z,38.44
2019-03-20T11:11:57.762Z,37.78
2019-03-20T11:17:02.887Z,37.93
2019-03-20T11:22:18.382Z,37.45
2019-03-20T11:27:15.837Z,37.27
2019-03-20T11:32:20.934Z,37.42
2019-03-20T11:37:26.415Z,36.16
2019-03-20T11:42:32.034Z,36.80
2019-03-20T11:47:37.162Z,36.62
2019-03-20T11:52:42.418Z,36.90
2019-03-20T11:57:47.637Z,36.93
2019-03-20T12:02:52.869Z,37.43
2019-03-20T12:07:58.150Z,37.46
2019-03-20T12:13:04.658Z,38.06
2019-03-20T12:18:09.797Z,37.67
2019-03-20T12:23:14.866Z,37.25
2019-03-20T12:28:20.415Z,37.11
2019-03-20T12:33:25.595Z,36.47
2019-03-20T12:38:31.908Z,36.93
2019-03-20T12:43:37.441Z,36.05
2019-03-20T12:48:43.009Z,35.64
2019-03-20T12:53:48.251Z,36.60
2019-03-20T12:58:53.413Z,35.33
2019-03-20T13:03:58.806Z,35.50
2019-03-20T13:09:07.356Z,35.90
2019-03-20T13:14:12.581Z,35.16
2019-03-20T13:19:17.774Z,33.57
2019-03-20T13:24:22.981Z,34.67
2019-03-20T13:29:28.091Z,34.69
2019-03-20T13:34:33.322Z,35.19
2019-03-20T13:39:38.472Z,35.68
2019-03-20T13:44:43.821Z,35.50
2019-03-20T13:49:49.145Z,35.99
2019-03-20T13:54:54.259Z,36.62
2019-03-20T13:59:59.425Z,37.05
2019-03-20T14:05:06.213Z,37.64
2019-03-20T14:10:24.289Z,38.10
2019-03-20T14:15:22.220Z,38.83
2019-03-20T14:20:29.370Z,39.08
2019-03-20T14:25:34.609Z,39.52
2019-03-20T14:30:39.903Z,39.86
2019-03-20T14:35:45.261Z,40.55
2019-03-20T14:40:50.429Z,40.30
2019-03-20T14:45:55.699Z,40.81
2019-03-20T14:51:01.129Z,41.32
2019-03-20T14:56:06.339Z,41.69
2019-03-20T15:01:11.533Z,42.70
2019-03-20T15:06:16.750Z,43.26
2019-03-20T15:11:21.966Z,44.18
2019-03-20T15:16:27.218Z,45.03
2019-03-20T15:21:32.265Z,46.72
2019-03-20T15:26:37.468Z,46.72
2019-03-20T15:31:42.649Z,46.77
2019-03-20T15:36:48.834Z,46.71
2019-03-20T15:41:53.876Z,46.59
2019-03-20T15:46:59.144Z,46.89
2019-03-20T15:52:04.370Z,47.22
2019-03-20T15:57:09.587Z,47.62
2019-03-20T16:02:14.715Z,48.33
2019-03-20T16:07:19.927Z,48.49
2019-03-20T16:12:25.121Z,48.92
2019-03-20T16:17:30.295Z,49.66
2019-03-20T16:22:35.433Z,50.87
2019-03-20T16:27:40.631Z,51.48
2019-03-20T16:32:45.944Z,52.20
2019-03-20T16:37:51.088Z,52.58
2019-03-20T16:42:56.371Z,54.69
2019-03-20T16:48:01.690Z,56.20
2019-03-20T16:53:06.944Z,56.26
2019-03-20T16:58:12.058Z,55.90
2019-03-20T17:03:17.263Z,55.79
2019-03-20T17:08:23.688Z,55.96
2019-03-20T17:13:28.805Z,56.24
2019-03-20T17:18:33.896Z,56.59
2019-03-20T17:23:39.102Z,56.82
2019-03-20T17:28:44.262Z,57.03
2019-03-20T17:33:49.485Z,56.91
2019-03-20T17:38:54.561Z,57.07
2019-03-20T17:43:59.641Z,57.35
2019-03-20T17:49:05.260Z,57.90
2019-03-20T17:54:10.485Z,58.17
2019-03-20T17:59:15.677Z,58.51
2019-03-20T18:04:20.791Z,59.19
2019-03-20T18:09:25.984Z,59.90
2019-03-20T18:14:31.108Z,59.94
2019-03-20T18:19:36.274Z,60.80
2019-03-20T18:24:41.374Z,61.51
2019-03-20T18:29:46.669Z,62.21
2019-03-20T18:34:51.854Z,62.86
2019-03-20T18:39:57.008Z,63.64
2019-03-20T18:45:02.082Z,64.23
2019-03-20T18:50:10.183Z,64.73
2019-03-20T18:55:17.461Z,66.19
2019-03-20T19:00:27.515Z,66.99
2019-03-20T19:05:35.745Z,68.04
2019-03-20T19:10:41.297Z,68.58
2019-03-20T19:15:46.492Z,70.34
2019-03-20T19:20:51.831Z,72.85
2019-03-20T19:25:56.985Z,74.52
2019-03-20T19:31:02.162Z,75.64
2019-03-20T19:36:07.443Z,76.83
2019-03-20T19:41:12.605Z,76.96
2019-03-20T19:46:17.799Z,77.38
2019-03-20T19:51:22.968Z,78.01
2019-03-20T19:56:28.220Z,78.22
2019-03-20T20:01:33.682Z,78.45
2019-03-20T20:06:38.810Z,78.38
2019-03-20T20:11:44.195Z,78.72
2019-03-20T20:16:49.270Z,78.69
2019-03-20T20:21:54.449Z,78.88
2019-03-20T20:26:59.633Z,79.18
2019-03-20T20:32:04.864Z,79.11
2019-03-20T20:37:10.068Z,78.92
2019-03-20T20:42:15.136Z,79.00
2019-03-20T20:47:20.377Z,79.09
2019-03-20T20:52:25.735Z,79.38
2019-03-20T20:57:30.871Z,79.38
2019-03-20T21:02:35.987Z,79.38
2019-03-20T21:07:41.155Z,79.58
2019-03-20T21:12:55.484Z,79.92
2019-03-20T21:17:59.268Z,79.92
2019-03-20T21:23:38.003Z,79.70
2019-03-20T21:29:11.827Z,79.48
2019-03-20T21:34:22.643Z,78.92
2019-03-20T21:39:27.716Z,78.58
2019-03-20T21:44:47.999Z,78.53
2019-03-20T21:49:53.088Z,78.17
2019-03-20T21:55:18.277Z,78.11
2019-03-20T22:00:52.006Z,77.80
2019-03-20T22:06:06.152Z,77.67
2019-03-20T22:11:32.318Z,77.71
2019-03-20T22:17:09.088Z,77.83
2019-03-20T22:22:48.841Z,77.80
2019-03-20T22:28:08.820Z,77.73
2019-03-20T22:33:41.960Z,77.74
2019-03-20T22:39:06.557Z,77.47
2019-03-20T22:44:11.688Z,77.62
2019-03-20T22:49:25.977Z,76.84
2019-03-20T22:54:56.980Z,76.51
2019-03-20T23:00:02.529Z,76.66
2019-03-20T23:05:10.845Z,76.56
2019-03-20T23:10:18.652Z,76.41
2019-03-20T23:15:24.092Z,76.48
2019-03-20T23:20:29.917Z,76.48
2019-03-20T23:25:35.018Z,76.61
2019-03-20T23:30:40.620Z,76.64
2019-03-20T23:35:45.780Z,76.85
2019-03-20T23:40:50.882Z,76.92
2019-03-20T23:45:56.398Z,76.99
2019-03-20T23:51:05.306Z,77.01
2019-03-20T23:56:11.760Z,77.00
